Sorensen's Resport, Hope Valley, California Weather observations

Data are for 15 minute period ending at time listed.
 Day   Time   Solar   Ave.   Ave.  Ave.  Vector  Max.   Baro.   Total    
  of    of     Rad.   Air    Rel.  Wind   Wind   Wind  Press.  Precip.   
Year   Day            Temp.  Hum.  Speed  Dir.   Gust                    
2019   (PST)  Kw/m2    F      %     mph   deg.    mph    mb.     in.     
-------------------------------------------------------------------------
  79    5:00   100.00   31.7    85    3.0    52     5.3   99999.0   23.93 
  79    5:15   100.00   30.2    92    1.9   312     3.7   99999.0   23.93 
  79    5:30   100.00   29.4    94    2.0   290     5.0   99999.0   23.92 
  79    5:45   100.00   28.5    95    1.9   198     4.4   99999.0   23.92 
  79    6:00   100.00   28.1    96    1.9   236     4.2   99999.0   23.93 
  79    6:15   100.00   28.5    93    2.8   174     7.5   99999.0   23.93 
  79    6:30   100.00   29.6    86    3.9    59     8.6   99999.0   23.93 
  79    6:45   100.00   30.5    84    1.9   209     3.6   99999.0   23.93 
  79    7:00   100.00   29.9    89    2.4    72     5.0   99999.0   23.93 
  79    7:15   100.00   30.0    91    1.0   227     2.9   99999.0   23.93 
  79    7:30   100.00   31.0    86    2.5    21     6.4   99999.0   23.93 
  79    7:45   100.00   31.4    88    1.2   179     4.5   99999.0   23.94 
  79    8:00   100.00   32.2    82    3.0   347    10.4   99999.0   23.93 
  79    8:15   100.00   33.2    74    2.2   306     5.3   99999.0   23.93 
  79    8:30   100.00   34.3    72    1.9   321     6.4   99999.0   23.93 
  79    8:45   100.00   34.4    71    2.7   315     6.3   99999.0   23.93 
  79    9:00   100.00   34.1    72    4.7   302    10.7   99999.0   23.95 
  79    9:15   100.00   34.2    72    4.5   292    12.4   99999.0   23.96 
  79    9:30   100.00   34.4    71    4.3   333     8.6   99999.0   23.96 
  79    9:45   100.00   34.9    70    2.6    22     7.8   99999.0   23.97 
  79   10:00   100.00   35.3    69    2.3    36     5.3   99999.0   23.97 
  79   10:15   100.00   35.0    70    4.0   320     8.0   99999.0   23.96 
  79   10:30   100.00   35.3    67    3.8   340    10.7   99999.0   23.96 
  79   10:45   100.00   35.3    67    5.1    47    10.8   99999.0   23.96 
  79   11:00   100.00   36.6    64    3.6   315    15.1   99999.0   23.97 
  79   11:15   100.00   36.3    61    6.2   303    14.5   99999.0   23.97 
  79   11:30   100.00   37.3    58    5.0   312    11.1   99999.0   23.97 
  79   11:45   100.00   37.7    56    7.0   313    15.1   99999.0   23.96 
  79   12:00   100.00   38.5    54    4.0   329    13.3   99999.0   23.97 
  79   12:15   100.00   38.4    54    4.6   288    15.3   99999.0   23.96 
  79   12:30   100.00   39.8    50    4.6     5    11.2   99999.0   23.96 
  79   12:45   100.00   38.8    52    5.2   328    16.5   99999.0   23.96 
  79   13:00   100.00   38.9    52    5.9   325    16.3   99999.0   23.96 
  79   13:15   100.00   39.1    52    5.1   336    11.7   99999.0   23.96 
  79   13:30   100.00   39.5    51    5.2   296    12.1   99999.0   23.96 
  79   13:45   100.00   39.4    51    5.1   292    13.0   99999.0   23.96 
  79   14:00   100.00   40.0    49    6.2   302    13.7   99999.0   23.96 
  79   14:15   100.00   40.6    51    6.5   268    13.7   99999.0   23.96 
  79   14:30   100.00   40.2    55    5.3   309    12.5   99999.0   23.96 
  79   14:45   100.00   38.9    57    8.3   286    16.5   99999.0   23.97 
  79   15:00   100.00   40.4    53    4.3   287    11.1   99999.0   23.96 
  79   15:15   100.00   40.5    50    6.0   271    14.5   99999.0   23.97 
  79   15:30   100.00   40.5    50    5.3   277    12.9   99999.0   23.97 
  79   15:45   100.00   40.1    51    3.9   245    11.2   99999.0   23.96 
  79   16:00   100.00   38.9    52    4.1   274    11.1   99999.0   23.96 
  79   16:15   100.00   40.8    50    4.3   263     9.4   99999.0   23.96 
  79   16:30   100.00   39.8    53    5.1   230    12.9   99999.0   23.96 
  79   16:45   100.00   39.7    51    5.7   269    10.4   99999.0   23.96 
  79   17:00   100.00   39.3    54    5.9   270    12.6   99999.0   23.96 
  79   17:15   100.00   37.7    64    6.7   242    10.8   99999.0   23.96 
  79   17:30   100.00   35.7    68    7.0   243    12.1   99999.0   23.96 
  79   17:45   100.00   34.7    71    5.6   244    11.5   99999.0   23.96 
  79   18:00   100.00   33.7    73    3.3   253     5.9   99999.0   23.96 
  79   18:15   100.00   32.8    76    2.1   274     3.6   99999.0   23.96 
  79   18:30   100.00   32.1    76    2.5   281     5.0   99999.0   23.96 
  79   18:45   100.00   31.5    78    2.7   246     4.3   99999.0   23.95 
  79   19:00   100.00   31.7    78    2.4   265     5.0   99999.0   23.95 
  79   19:15   100.00   30.9    79    1.4   247     2.6   99999.0   23.96 
  79   19:30   100.00   30.6    81    0.9   248     2.0   99999.0   23.96 
  79   19:45   100.00   29.8    84    0.5   268     1.4   99999.0   23.95 
  79   20:00   100.00   29.4    86    1.1   277     2.4   99999.0   23.96 
  79   20:15   100.00   29.5    85    1.4   246     2.1   99999.0   23.96 
  79   20:30   100.00   29.2    87    0.9   296     1.7   99999.0   23.96 
  79   20:45   100.00   29.1    86    1.4   252     4.5   99999.0   23.96 
  79   21:00   100.00   29.7    83    2.5   263     4.5   99999.0   23.96 
  79   21:15   100.00   29.6    83    2.5   242     4.5   99999.0   23.96 
  79   21:30   100.00   29.7    82    3.1   230     5.0   99999.0   23.96 
  79   21:45   100.00   29.6    82    3.4   224     4.5   99999.0   23.96 
  79   22:00   100.00   29.4    84    2.8   236     7.6   99999.0   23.96 
  79   22:15   100.00   29.1    84    1.7   269     4.0   99999.0   23.96 
  79   22:30   100.00   28.6    86    2.0   284     3.0   99999.0   23.96 
  79   22:45   100.00   28.0    87    1.9   263     2.8   99999.0   23.96 
  79   23:00   100.00   27.6    88    2.3   243     3.0   99999.0   23.96 
  79   23:15   100.00   27.7    88    2.2   263     3.6   99999.0   23.96 
  79   23:30   100.00   27.3    88    0.8   295     2.5   99999.0   23.96 
  79   23:45   100.00   27.0    90    0.1   275     0.9   99999.0   23.96 
  80    0:00   100.00   27.1    90    1.3   251     2.5   99999.0   23.96 
  80    0:15   100.00   27.8    88    4.2   244     7.1   99999.0   23.97 
  80    0:30   100.00   28.2    87    3.8   242     6.6   99999.0   23.97 
  80    0:45   100.00   28.3    87    2.3   226     4.3   99999.0   23.97 
  80    1:00   100.00   28.4    87    1.2   299     2.2   99999.0   23.97 
  80    1:15   100.00   28.6    87    1.8   256     4.3   99999.0   23.97 
  80    1:30   100.00   28.7    86    3.7   259     6.4   99999.0   23.97 
  80    1:45   100.00   28.8    86    2.4   230     4.0   99999.0   23.97 
  80    2:00   100.00   28.8    86    1.7   250     3.4   99999.0   23.97 
  80    2:15   100.00   28.8    87    1.5   268     2.3   99999.0   23.97 
  80    2:30   100.00   28.6    90    0.9   255     1.5   99999.0   23.98 
  80    2:45   100.00   28.3    94    0.9   290     1.8   99999.0   23.98 
  80    3:00   100.00   28.4    95    1.1   258     2.3   99999.0   23.99 
  80    3:15   100.00   28.3    96    1.1   235     2.6   99999.0   23.99 
  80    3:30   100.00   28.3    96    1.5   223     1.9   99999.0   23.99 
  80    3:45   100.00   28.2    96    1.3   217     2.0   99999.0   23.99 
  80    4:00   100.00   28.1    96    0.4   257     1.1   99999.0   23.99 
  80    4:15   100.00   28.0    96    1.6   249     2.4   99999.0   23.99 
  80    4:30   100.00   28.1    96    1.8   224     2.5   99999.0   23.99 
  80    4:45   100.00   28.1    96    0.8   196     2.0   99999.0   23.99 

Return to Sorensen's Resort graphs page.


Western Regional Climate Center,wrcc@dri.edu